createdAt,value
2018-03-02T00:01:14.934Z,-7.90
2018-03-02T00:03:43.275Z,-8.00
2018-03-02T00:06:10.830Z,-8.00
2018-03-02T00:08:38.363Z,-8.00
2018-03-02T00:11:05.931Z,-8.00
2018-03-02T00:13:34.267Z,-8.10
2018-03-02T00:16:01.835Z,-8.10
2018-03-02T00:18:29.505Z,-8.10
2018-03-02T00:20:57.095Z,-8.10
2018-03-02T00:23:24.753Z,-8.10
2018-03-02T00:25:52.530Z,-8.10
2018-03-02T00:28:20.074Z,-8.10
2018-03-02T00:30:48.375Z,-8.20
2018-03-02T00:33:15.931Z,-8.20
2018-03-02T00:35:44.234Z,-8.20
2018-03-02T00:38:11.818Z,-8.20
2018-03-02T00:40:39.356Z,-8.20
2018-03-02T00:43:07.697Z,-8.30
2018-03-02T00:45:35.264Z,-8.30
2018-03-02T00:48:02.830Z,-8.20
2018-03-02T00:50:30.367Z,-8.30
2018-03-02T00:52:58.780Z,-8.40
2018-03-02T00:55:26.364Z,-8.40
2018-03-02T00:57:53.899Z,-8.40
2018-03-02T01:00:22.196Z,-8.40
2018-03-02T01:02:49.783Z,-8.40
2018-03-02T01:05:17.311Z,-8.40
2018-03-02T01:07:44.870Z,-8.50
2018-03-02T01:10:12.601Z,-8.50
2018-03-02T01:12:40.145Z,-8.50
2018-03-02T01:15:08.564Z,-8.50
2018-03-02T01:17:36.132Z,-8.50
2018-03-02T01:20:03.681Z,-8.60
2018-03-02T01:22:32.009Z,-8.60
2018-03-02T01:24:59.576Z,-8.60
2018-03-02T01:27:27.105Z,-8.60
2018-03-02T01:29:55.434Z,-8.70
2018-03-02T01:32:23.003Z,-8.70
2018-03-02T01:34:50.529Z,-8.70
2018-03-02T01:37:18.861Z,-8.80
2018-03-02T01:39:46.424Z,-8.80
2018-03-02T01:42:13.955Z,-8.80
2018-03-02T01:44:41.573Z,-8.80
2018-03-02T01:47:09.147Z,-8.80
2018-03-02T01:49:36.670Z,-8.80
2018-03-02T01:52:04.231Z,-8.90
2018-03-02T01:54:31.763Z,-8.90
2018-03-02T01:56:59.429Z,-8.90
2018-03-02T01:59:27.098Z,-8.90
2018-03-02T02:01:54.622Z,-8.90
2018-03-02T02:04:22.962Z,-9.00
2018-03-02T02:06:50.536Z,-9.00
2018-03-02T02:09:18.122Z,-9.00
2018-03-02T02:11:45.776Z,-9.00
2018-03-02T02:14:13.323Z,-9.10
2018-03-02T02:16:41.642Z,-9.10
2018-03-02T02:19:09.229Z,-9.10
2018-03-02T02:21:36.782Z,-9.10
2018-03-02T02:24:04.346Z,-9.10
2018-03-02T02:26:32.024Z,-9.20
2018-03-02T02:28:59.591Z,-9.20
2018-03-02T02:31:27.123Z,-9.20
2018-03-02T02:33:54.679Z,-9.20
2018-03-02T02:36:23.030Z,-9.30
2018-03-02T02:38:50.555Z,-9.30
2018-03-02T02:41:18.897Z,-9.30
2018-03-02T02:43:46.426Z,-9.30
2018-03-02T02:46:14.744Z,-9.40
2018-03-02T02:48:42.303Z,-9.40
2018-03-02T02:51:10.091Z,-9.40
2018-03-02T02:53:37.671Z,-9.40
2018-03-02T02:56:05.335Z,-9.40
2018-03-02T02:58:32.904Z,-9.40
2018-03-02T03:01:00.483Z,-9.50
2018-03-02T03:03:28.016Z,-9.50
2018-03-02T03:05:56.331Z,-9.50
2018-03-02T03:08:23.862Z,-9.50
2018-03-02T03:10:51.481Z,-9.50
2018-03-02T03:13:19.052Z,-9.60
2018-03-02T03:15:46.630Z,-9.60
2018-03-02T03:18:14.164Z,-9.60
2018-03-02T03:20:42.514Z,-9.60
2018-03-02T03:23:10.157Z,-9.60
2018-03-02T03:25:37.698Z,-9.60
2018-03-02T03:28:06.017Z,-9.60
2018-03-02T03:30:33.576Z,-9.70
2018-03-02T03:33:01.114Z,-9.70
2018-03-02T03:35:28.681Z,-9.70
2018-03-02T03:37:56.219Z,-9.70
2018-03-02T03:40:23.809Z,-9.70
2018-03-02T03:42:51.339Z,-9.70
2018-03-02T03:45:19.016Z,-9.80
2018-03-02T03:47:46.574Z,-9.80
2018-03-02T03:50:14.138Z,-9.80
2018-03-02T03:52:42.430Z,-9.80
2018-03-02T03:55:10.026Z,-9.80
2018-03-02T03:57:37.599Z,-9.80
2018-03-02T04:00:05.166Z,-9.90
2018-03-02T04:02:32.698Z,-9.90
2018-03-02T04:05:01.126Z,-9.90
2018-03-02T04:07:28.795Z,-9.90
2018-03-02T04:09:56.379Z,-9.90
2018-03-02T04:12:24.040Z,-10.00
2018-03-02T04:14:51.583Z,-10.00
2018-03-02T04:17:19.933Z,-10.00
2018-03-02T04:19:47.485Z,-10.00
2018-03-02T04:22:15.028Z,-10.10
2018-03-02T04:24:43.369Z,-10.20
2018-03-02T04:27:10.905Z,-10.20
2018-03-02T04:29:38.678Z,-10.20
2018-03-02T04:32:06.252Z,-10.20
2018-03-02T04:34:33.806Z,-10.20
2018-03-02T04:37:02.218Z,-10.30
2018-03-02T04:39:29.784Z,-10.30
2018-03-02T04:41:57.370Z,-10.30
2018-03-02T04:44:24.950Z,-10.30
2018-03-02T04:46:52.506Z,-10.30
2018-03-02T04:49:20.042Z,-10.40
2018-03-02T04:51:48.375Z,-10.40
2018-03-02T04:54:15.928Z,-10.40
2018-03-02T04:56:43.707Z,-10.40
2018-03-02T04:59:11.242Z,-10.40
2018-03-02T05:01:39.564Z,-10.40
2018-03-02T05:04:07.239Z,-10.50
2018-03-02T05:06:34.809Z,-10.40
2018-03-02T05:09:02.483Z,-10.40
2018-03-02T05:11:30.032Z,-10.50
2018-03-02T05:13:58.333Z,-10.50
2018-03-02T05:16:26.016Z,-10.50
2018-03-02T05:18:53.590Z,-10.50
2018-03-02T05:21:21.467Z,-10.50
2018-03-02T05:23:49.140Z,-10.50
2018-03-02T05:26:16.675Z,-10.50
2018-03-02T05:28:44.211Z,-10.60
2018-03-02T05:31:12.060Z,-10.60
2018-03-02T05:33:39.760Z,-10.60
2018-03-02T05:36:07.349Z,-10.60
2018-03-02T05:38:34.903Z,-10.60
2018-03-02T05:41:02.550Z,-10.70
2018-03-02T05:43:30.166Z,-10.70
2018-03-02T05:45:57.793Z,-10.70
2018-03-02T05:48:25.471Z,-10.70
2018-03-02T05:50:53.062Z,-10.70
2018-03-02T05:53:20.618Z,-10.70
2018-03-02T05:55:48.185Z,-10.70
2018-03-02T05:58:15.980Z,-10.80
2018-03-02T06:00:43.523Z,-10.60
2018-03-02T06:03:11.067Z,-10.00
2018-03-02T06:05:38.660Z,-10.10
2018-03-02T06:08:06.250Z,-10.40
2018-03-02T06:10:33.813Z,-10.50
2018-03-02T06:13:01.400Z,-10.60
2018-03-02T06:15:29.060Z,-10.70
2018-03-02T06:17:56.644Z,-10.70
2018-03-02T06:20:24.202Z,-10.70
2018-03-02T06:22:51.778Z,-10.70
2018-03-02T06:25:19.311Z,-10.70
2018-03-02T06:27:47.654Z,-10.60
2018-03-02T06:30:15.228Z,-10.60
2018-03-02T06:32:42.911Z,-10.60
2018-03-02T06:35:10.487Z,-10.60
2018-03-02T06:37:38.066Z,-10.50
2018-03-02T06:40:05.728Z,-10.60
2018-03-02T06:42:33.335Z,-10.50
2018-03-02T06:45:01.774Z,-10.50
2018-03-02T06:47:29.339Z,-10.50
2018-03-02T06:49:56.879Z,-10.50
2018-03-02T06:52:25.297Z,-10.40
2018-03-02T06:54:52.834Z,-10.40
2018-03-02T06:57:21.159Z,-10.40
2018-03-02T06:59:48.744Z,-10.40
2018-03-02T07:02:16.283Z,-10.10
2018-03-02T07:04:44.584Z,-10.40
2018-03-02T07:07:12.142Z,-10.40
2018-03-02T07:09:39.735Z,-10.40
2018-03-02T07:12:07.301Z,-10.40
2018-03-02T07:14:34.843Z,-10.30
2018-03-02T07:17:03.262Z,-10.20
2018-03-02T07:19:30.949Z,-10.30
2018-03-02T07:21:58.529Z,-10.20
2018-03-02T07:24:26.062Z,-10.20
2018-03-02T07:26:54.376Z,-10.20
2018-03-02T07:29:21.985Z,-10.20
2018-03-02T07:31:49.616Z,-10.10
2018-03-02T07:34:17.285Z,-10.00
2018-03-02T07:36:44.850Z,-9.50
2018-03-02T07:39:12.546Z,-10.00
2018-03-02T07:41:40.082Z,-10.00
2018-03-02T07:44:08.383Z,-9.80
2018-03-02T07:46:35.946Z,-9.80
2018-03-02T07:49:04.255Z,-9.60
2018-03-02T07:51:31.821Z,-9.60
2018-03-02T07:53:59.406Z,-9.40
2018-03-02T07:56:26.970Z,-9.30
2018-03-02T07:58:54.639Z,-9.10
2018-03-02T08:01:22.178Z,-9.00
2018-03-02T08:03:50.510Z,-8.40
2018-03-02T08:06:18.046Z,-8.40
2018-03-02T08:08:46.473Z,-8.30
2018-03-02T08:11:14.002Z,-8.30
2018-03-02T08:13:42.426Z,-8.20
2018-03-02T08:16:09.993Z,-8.20
2018-03-02T08:18:37.575Z,-8.00
2018-03-02T08:21:05.110Z,-8.10
2018-03-02T08:23:33.438Z,-8.00
2018-03-02T08:26:00.985Z,-8.00
2018-03-02T08:28:28.550Z,-7.90
2018-03-02T08:30:56.973Z,-7.70
2018-03-02T08:33:24.551Z,-7.70
2018-03-02T08:35:52.104Z,-7.50
2018-03-02T08:38:19.682Z,-7.50
2018-03-02T08:40:47.246Z,-7.40
2018-03-02T08:43:14.818Z,-7.30
2018-03-02T08:45:42.388Z,-7.30
2018-03-02T08:48:10.070Z,-7.20
2018-03-02T08:50:37.613Z,-7.10
2018-03-02T08:53:05.936Z,-7.20
2018-03-02T08:55:33.645Z,-7.30
2018-03-02T08:58:01.291Z,-7.20
2018-03-02T09:00:28.815Z,-7.10
2018-03-02T09:02:57.138Z,-6.60
2018-03-02T09:05:24.674Z,-6.70
2018-03-02T09:07:53.034Z,-6.70
2018-03-02T09:10:20.566Z,-6.70
2018-03-02T09:12:48.190Z,-6.80
2018-03-02T09:15:15.721Z,-6.90
2018-03-02T09:17:43.282Z,-6.70
2018-03-02T09:20:10.843Z,-6.60
2018-03-02T09:22:38.371Z,-6.50
2018-03-02T09:25:05.926Z,-6.50
2018-03-02T09:27:33.453Z,-6.50
2018-03-02T09:30:01.097Z,-6.00
2018-03-02T09:32:28.719Z,-5.70
2018-03-02T09:34:56.287Z,-5.60
2018-03-02T09:37:23.958Z,-5.50
2018-03-02T09:39:51.519Z,-5.40
2018-03-02T09:42:19.050Z,-5.60
2018-03-02T09:44:46.685Z,-5.60
2018-03-02T09:47:14.351Z,-5.40
2018-03-02T09:49:41.971Z,-5.40
2018-03-02T09:52:09.582Z,-5.60
2018-03-02T09:54:37.151Z,-5.80
2018-03-02T09:57:04.726Z,-5.80
2018-03-02T09:59:32.398Z,-5.80
2018-03-02T10:01:59.934Z,-5.80
2018-03-02T10:04:28.262Z,-5.60
2018-03-02T10:06:55.847Z,-5.60
2018-03-02T10:09:23.603Z,-5.50
2018-03-02T10:11:51.140Z,-5.50
2018-03-02T10:14:19.461Z,-5.40
2018-03-02T10:16:47.032Z,-5.40
2018-03-02T10:19:14.611Z,-5.40
2018-03-02T10:21:42.146Z,-5.50
2018-03-02T10:24:10.458Z,-5.00
2018-03-02T10:26:38.066Z,-5.00
2018-03-02T10:29:05.642Z,-4.70
2018-03-02T10:31:33.218Z,-4.70
2018-03-02T10:34:00.770Z,-4.70
2018-03-02T10:36:28.327Z,-4.80
2018-03-02T10:38:55.931Z,-4.80
2018-03-02T10:41:23.519Z,-4.50
2018-03-02T10:43:51.073Z,-4.60
2018-03-02T10:46:18.608Z,-4.70
2018-03-02T10:48:46.498Z,-4.80
2018-03-02T10:51:14.031Z,-4.80
2018-03-02T10:53:42.343Z,-4.60
2018-03-02T10:56:09.918Z,-4.60
2018-03-02T10:58:37.489Z,-4.50
2018-03-02T11:01:10.823Z,-4.30
2018-03-02T11:03:39.910Z,-4.30
2018-03-02T11:06:07.488Z,-4.40
2018-03-02T11:08:35.026Z,-4.50
2018-03-02T11:11:03.354Z,-4.40
2018-03-02T11:13:31.005Z,-4.50
2018-03-02T11:15:58.790Z,-4.40
2018-03-02T11:18:27.243Z,-4.30
2018-03-02T11:20:54.899Z,-4.10
2018-03-02T11:23:22.398Z,-4.20
2018-03-02T11:25:50.718Z,-4.40
2018-03-02T11:28:18.381Z,-4.40
2018-03-02T11:30:45.966Z,-4.30
2018-03-02T11:33:13.512Z,-4.40
2018-03-02T11:35:41.132Z,-4.30
2018-03-02T11:38:08.645Z,-4.00
2018-03-02T11:40:36.949Z,-3.70
2018-03-02T11:43:04.632Z,-3.70
2018-03-02T11:45:32.203Z,-3.50
2018-03-02T11:47:59.769Z,-3.60
2018-03-02T11:50:27.344Z,-3.60
2018-03-02T11:52:54.973Z,-3.90
2018-03-02T11:55:22.582Z,-3.90
2018-03-02T11:57:50.159Z,-4.00
2018-03-02T12:00:17.690Z,-3.90
2018-03-02T12:02:46.002Z,-3.90
2018-03-02T12:05:14.442Z,-4.10
2018-03-02T12:07:42.360Z,-4.10
2018-03-02T12:10:09.915Z,-4.10
2018-03-02T12:12:37.535Z,-4.20
2018-03-02T12:15:05.308Z,-4.20
2018-03-02T12:17:33.903Z,-4.20
2018-03-02T12:20:01.578Z,-4.10
2018-03-02T12:22:29.151Z,-4.00
2018-03-02T12:24:56.752Z,-3.90
2018-03-02T12:27:24.395Z,-3.80
2018-03-02T12:29:52.231Z,-3.80
2018-03-02T12:32:19.856Z,-3.80
2018-03-02T12:34:47.662Z,-4.00
2018-03-02T12:37:15.299Z,-4.10
2018-03-02T12:39:43.077Z,-4.10
2018-03-02T12:42:10.960Z,-4.10
2018-03-02T12:44:38.714Z,-3.90
2018-03-02T12:47:06.988Z,-3.70
2018-03-02T12:49:35.404Z,-3.70
2018-03-02T12:52:02.964Z,-3.70
2018-03-02T12:54:30.713Z,-3.70
2018-03-02T12:56:58.560Z,-3.80
2018-03-02T12:59:26.090Z,-3.80
2018-03-02T13:01:53.675Z,-3.80
2018-03-02T13:04:21.204Z,-3.70
2018-03-02T13:06:48.823Z,-3.60
2018-03-02T13:09:16.399Z,-3.70
2018-03-02T13:11:43.934Z,-3.90
2018-03-02T13:14:12.230Z,-3.60
2018-03-02T13:16:40.575Z,-3.70
2018-03-02T13:19:08.104Z,-3.70
2018-03-02T13:21:35.641Z,-3.70
2018-03-02T13:24:04.067Z,-3.60
2018-03-02T13:26:43.462Z,-3.60
2018-03-02T13:29:11.021Z,-3.50
2018-03-02T13:31:38.585Z,-3.60
2018-03-02T13:34:17.992Z,-3.60
2018-03-02T13:36:45.550Z,-3.60
2018-03-02T13:39:14.569Z,-3.80
2018-03-02T13:41:54.854Z,-3.80
2018-03-02T13:44:22.387Z,-3.80
2018-03-02T13:46:50.742Z,-3.80
2018-03-02T13:49:30.174Z,-3.90
2018-03-02T13:51:57.942Z,-3.90
2018-03-02T13:54:25.477Z,-3.90
2018-03-02T13:59:56.286Z,-3.90
2018-03-02T14:02:36.156Z,-3.90
2018-03-02T14:05:03.830Z,-3.90
2018-03-02T14:07:31.415Z,-3.90
2018-03-02T14:09:58.967Z,-3.80
2018-03-02T14:12:26.509Z,-3.90
2018-03-02T14:14:54.832Z,-3.80
2018-03-02T14:17:22.373Z,-3.80
2018-03-02T14:19:50.897Z,-4.10
2018-03-02T14:22:18.425Z,-4.10
2018-03-02T14:24:46.046Z,-4.20
2018-03-02T14:27:13.610Z,-4.30
2018-03-02T14:29:41.144Z,-4.40
2018-03-02T14:32:10.211Z,-4.70
2018-03-02T14:34:37.744Z,-4.70
2018-03-02T14:37:05.303Z,-4.70
2018-03-02T14:39:33.620Z,-4.60
2018-03-02T14:42:01.195Z,-4.60
2018-03-02T14:44:28.738Z,-4.40
2018-03-02T14:46:57.129Z,-4.50
2018-03-02T14:49:25.423Z,-4.50
2018-03-02T14:51:53.753Z,-4.70
2018-03-02T14:54:21.314Z,-4.70
2018-03-02T14:56:48.991Z,-4.60
2018-03-02T14:59:16.546Z,-4.60
2018-03-02T15:01:44.126Z,-4.60
2018-03-02T15:04:11.792Z,-4.60
2018-03-02T15:06:39.569Z,-4.80
2018-03-02T15:09:07.100Z,-4.70
2018-03-02T15:11:35.413Z,-4.70
2018-03-02T15:14:02.974Z,-4.70
2018-03-02T15:16:31.298Z,-4.70
2018-03-02T15:18:58.826Z,-4.70
2018-03-02T15:21:27.168Z,-4.90
2018-03-02T15:23:54.704Z,-4.90
2018-03-02T15:26:22.299Z,-5.10
2018-03-02T15:28:49.878Z,-5.10
2018-03-02T15:31:17.443Z,-5.10
2018-03-02T15:33:44.979Z,-5.10
2018-03-02T15:36:13.394Z,-5.30
2018-03-02T15:38:40.974Z,-5.30
2018-03-02T15:41:08.510Z,-5.30
2018-03-02T15:43:36.824Z,-5.40
2018-03-02T15:46:04.399Z,-5.50
2018-03-02T15:48:31.935Z,-5.40
2018-03-02T15:51:00.278Z,-5.50
2018-03-02T15:53:27.825Z,-5.50
2018-03-02T15:55:55.366Z,-5.50
2018-03-02T15:58:23.707Z,-5.60
2018-03-02T16:00:51.259Z,-5.60
2018-03-02T16:03:18.790Z,-5.70
2018-03-02T16:05:46.362Z,-5.70
2018-03-02T16:08:14.688Z,-5.80
2018-03-02T16:10:42.216Z,-5.80
2018-03-02T16:13:09.797Z,-5.80
2018-03-02T16:15:38.114Z,-5.90
2018-03-02T16:18:05.648Z,-5.90
2018-03-02T16:20:33.222Z,-5.90
2018-03-02T16:23:00.835Z,-5.90
2018-03-02T16:25:28.375Z,-5.90
2018-03-02T16:27:56.739Z,-5.90
2018-03-02T16:30:24.275Z,-5.90
2018-03-02T16:32:51.940Z,-5.90
2018-03-02T16:35:19.522Z,-6.00
2018-03-02T16:37:47.051Z,-6.00
2018-03-02T16:40:15.388Z,-6.00
2018-03-02T16:42:42.973Z,-6.00
2018-03-02T16:45:10.522Z,-6.00
2018-03-02T16:47:38.063Z,-6.10
2018-03-02T16:50:06.407Z,-6.10
2018-03-02T16:52:33.985Z,-6.20
2018-03-02T16:55:01.522Z,-6.20
2018-03-02T16:57:29.119Z,-6.10
2018-03-02T16:59:56.680Z,-6.20
2018-03-02T17:02:24.235Z,-6.30
2018-03-02T17:04:51.924Z,-6.30
2018-03-02T17:07:19.450Z,-6.30
2018-03-02T17:09:47.779Z,-6.30
2018-03-02T17:12:15.354Z,-6.40
2018-03-02T17:14:42.887Z,-6.40
2018-03-02T17:17:11.297Z,-6.40
2018-03-02T17:19:38.879Z,-6.50
2018-03-02T17:22:06.540Z,-6.50
2018-03-02T17:24:34.215Z,-6.50
2018-03-02T17:27:01.789Z,-6.50
2018-03-02T17:29:29.326Z,-6.60
2018-03-02T17:31:57.646Z,-6.60
2018-03-02T17:34:25.222Z,-6.60
2018-03-02T17:36:52.759Z,-6.60
2018-03-02T17:39:21.059Z,-6.70
2018-03-02T17:41:49.581Z,-6.70
2018-03-02T17:44:17.143Z,-6.70
2018-03-02T17:46:44.682Z,-6.80
2018-03-02T17:49:13.032Z,-6.80
2018-03-02T17:51:40.558Z,-6.80
2018-03-02T17:54:08.249Z,-6.80
2018-03-02T17:56:35.829Z,-6.80
2018-03-02T17:59:03.374Z,-6.90
2018-03-02T18:01:31.677Z,-6.50
2018-03-02T18:03:59.259Z,-6.50
2018-03-02T18:06:26.939Z,-6.50
2018-03-02T18:08:54.487Z,-6.50
2018-03-02T18:11:22.067Z,-6.40
2018-03-02T18:13:49.843Z,-6.40
2018-03-02T18:16:17.371Z,-6.30
2018-03-02T18:18:46.623Z,-6.40
2018-03-02T18:21:14.152Z,-6.40
2018-03-02T18:23:41.770Z,-6.50
2018-03-02T18:26:09.339Z,-6.80
2018-03-02T18:28:37.663Z,-7.00
2018-03-02T18:31:05.298Z,-7.00
2018-03-02T18:33:32.870Z,-7.10
2018-03-02T18:36:00.406Z,-7.10
2018-03-02T18:38:28.834Z,-6.90
2018-03-02T18:40:56.410Z,-7.00
2018-03-02T18:43:23.982Z,-6.90
2018-03-02T18:45:51.519Z,-6.90
2018-03-02T18:48:19.864Z,-7.00
2018-03-02T18:50:47.438Z,-7.00
2018-03-02T18:53:15.181Z,-7.00
2018-03-02T18:55:42.765Z,-7.10
2018-03-02T18:58:10.459Z,-7.20
2018-03-02T19:00:38.010Z,-7.30
2018-03-02T19:03:05.668Z,-7.20
2018-03-02T19:05:33.242Z,-7.30
2018-03-02T19:08:00.778Z,-7.40
2018-03-02T19:10:29.320Z,-7.30
2018-03-02T19:12:56.865Z,-7.30
2018-03-02T19:15:24.555Z,-7.00
2018-03-02T19:17:52.145Z,-6.80
2018-03-02T19:20:19.689Z,-6.70
2018-03-02T19:22:47.368Z,-6.70
2018-03-02T19:25:14.944Z,-6.60
2018-03-02T19:27:42.549Z,-6.70
2018-03-02T19:30:11.594Z,-6.70
2018-03-02T19:32:39.935Z,-7.00
2018-03-02T19:35:07.581Z,-7.00
2018-03-02T19:37:35.149Z,-7.20
2018-03-02T19:40:02.826Z,-7.40
2018-03-02T19:42:30.381Z,-7.40
2018-03-02T19:44:57.920Z,-7.50
2018-03-02T19:47:25.496Z,-7.50
2018-03-02T19:49:53.112Z,-7.50
2018-03-02T19:52:20.783Z,-7.60
2018-03-02T19:54:48.372Z,-7.60
2018-03-02T19:57:15.925Z,-7.60
2018-03-02T19:59:43.523Z,-7.60
2018-03-02T20:02:11.115Z,-7.60
2018-03-02T20:04:38.742Z,-7.60
2018-03-02T20:07:06.312Z,-7.70
2018-03-02T20:09:33.986Z,-7.70
2018-03-02T20:12:01.512Z,-7.80
2018-03-02T20:14:29.822Z,-7.80
2018-03-02T20:16:58.154Z,-7.80
2018-03-02T20:19:25.734Z,-7.80
2018-03-02T20:21:53.396Z,-7.90
2018-03-02T20:24:20.978Z,-7.90
2018-03-02T20:26:48.518Z,-7.90
2018-03-02T20:29:16.099Z,-8.00
2018-03-02T20:31:44.599Z,-8.00
2018-03-02T20:34:12.136Z,-8.00
2018-03-02T20:36:40.446Z,-7.90
2018-03-02T20:39:08.028Z,-7.90
2018-03-02T20:41:35.561Z,-7.90
2018-03-02T20:44:03.875Z,-8.10
2018-03-02T20:46:31.550Z,-8.10
2018-03-02T20:48:59.086Z,-8.10
2018-03-02T20:51:27.527Z,-8.20
2018-03-02T20:53:55.186Z,-8.20
2018-03-02T20:56:22.765Z,-8.20
2018-03-02T20:58:50.329Z,-8.20
2018-03-02T21:01:17.912Z,-8.20
2018-03-02T21:03:45.503Z,-8.30
2018-03-02T21:06:13.045Z,-8.30
2018-03-02T21:08:40.622Z,-8.30
2018-03-02T21:11:08.188Z,-8.30
2018-03-02T21:13:35.714Z,-8.30
2018-03-02T21:16:04.075Z,-8.40
2018-03-02T21:18:31.630Z,-8.40
2018-03-02T21:20:59.187Z,-8.40
2018-03-02T21:23:26.780Z,-8.50
2018-03-02T21:25:54.434Z,-8.50
2018-03-02T21:28:21.972Z,-8.40
2018-03-02T21:30:50.419Z,-8.40
2018-03-02T21:33:17.950Z,-8.50
2018-03-02T21:35:46.245Z,-8.40
2018-03-02T21:38:13.826Z,-8.50
2018-03-02T21:40:41.402Z,-8.40
2018-03-02T21:43:08.946Z,-8.40
2018-03-02T21:45:37.289Z,-8.40
2018-03-02T21:48:04.932Z,-8.50
2018-03-02T21:50:32.523Z,-8.40
2018-03-02T21:53:00.083Z,-8.50
2018-03-02T21:55:27.644Z,-8.50
2018-03-02T21:57:55.180Z,-8.50
2018-03-02T22:00:22.754Z,-8.50
2018-03-02T22:02:51.055Z,-8.50
2018-03-02T22:05:19.350Z,-8.50
2018-03-02T22:07:46.942Z,-8.50
2018-03-02T22:10:15.225Z,-8.50
2018-03-02T22:12:42.878Z,-8.50
2018-03-02T22:15:11.219Z,-8.60
2018-03-02T22:17:38.790Z,-8.60
2018-03-02T22:20:06.629Z,-8.60
2018-03-02T22:22:34.227Z,-8.60
2018-03-02T22:25:01.760Z,-8.60
2018-03-02T22:27:30.061Z,-8.60
2018-03-02T22:29:57.638Z,-8.60
2018-03-02T22:32:25.179Z,-8.60
2018-03-02T22:34:53.497Z,-8.60
2018-03-02T22:37:21.075Z,-8.60
2018-03-02T22:39:48.618Z,-8.60
2018-03-02T22:42:16.920Z,-8.60
2018-03-02T22:44:44.604Z,-8.60
2018-03-02T22:47:12.142Z,-8.60
2018-03-02T22:49:40.462Z,-8.60
2018-03-02T22:52:08.037Z,-8.60
2018-03-02T22:54:35.574Z,-8.60
2018-03-02T22:57:03.894Z,-8.60
2018-03-02T22:59:31.474Z,-8.60
2018-03-02T23:01:59.004Z,-8.60
2018-03-02T23:04:27.309Z,-8.60
2018-03-02T23:06:55.713Z,-8.70
2018-03-02T23:09:23.248Z,-8.70
2018-03-02T23:11:51.573Z,-8.70
2018-03-02T23:14:19.153Z,-8.70
2018-03-02T23:16:46.686Z,-8.60
2018-03-02T23:19:14.997Z,-8.70
2018-03-02T23:21:42.679Z,-8.70
2018-03-02T23:24:10.213Z,-8.70
2018-03-02T23:26:37.747Z,-8.70
2018-03-02T23:29:05.370Z,-8.70
2018-03-02T23:31:33.723Z,-8.70
2018-03-02T23:34:01.457Z,-8.70
2018-03-02T23:36:29.245Z,-8.70
2018-03-02T23:38:56.778Z,-8.70
2018-03-02T23:41:24.306Z,-8.70
2018-03-02T23:43:52.208Z,-8.80
2018-03-02T23:46:19.938Z,-8.70
2018-03-02T23:48:47.473Z,-8.70
2018-03-02T23:51:15.838Z,-8.70
2018-03-02T23:53:43.376Z,-8.70
2018-03-02T23:56:10.993Z,-8.70
2018-03-02T23:58:38.578Z,-8.80
